KETN/ETN METAR and TAF weather

Enter ICAO airport designator
Station Type Date Time Source
KETN METAR 2019/10/23 12:35 UTC NOAA

KETN 231235Z AUTO 16005KT 10SM CLR 09/04 A3003 RMK AO2 T00920037


Station Type Date Time Source
KETN Decoded METAR 2019/10/23 12:35 UTC NOAA

Station name not available
Oct 23, 2019 - 08:35 AM EDT / 2019.10.23 1235 UTC
Wind: from the SSE (160 degrees) at 6 MPH (5 KT):0
Visibility: 10 mile(s):0
Sky conditions: clear
Temperature: 48.6 F (9.2 C)
Dew Point: 38.7 F (3.7 C)
Relative Humidity: 68%
Pressure (altimeter): 30.03 in. Hg (1016 hPa)
ob: KETN 231235Z AUTO 16005KT 10SM CLR 09/04 A3003 RMK AO2 T00920037
cycle: 12

Station Type Date Time Source
KETN TAF UTC NOAA

Error!

Example: see airport list